Iblea — A8JR2 — position and weather

sailwx.info

Track history (hours):
 
Tides and Currents Weather Stations Pressure Air Temp Water Temp Dewpoint Dewpoint Depression Visibility Wind Speed Wind Dir Waves Ship Positions

Iblea

Last reported at 2018-Apr-18 22:24 UTC. Time now 2018-Apr-21 18:46 UTC.
Position N 01°19' E 103°19'.

Length 240 m; draft 8 m.

Type: Ship. MMSI: 636091121.

Date/timePositionNaut miles runAvg speedWind from/ knotsBaromVisibWave heightAir tempDewpointWater temp
2018-Apr-18 22:24N 01°19' E 103°19'612.3
2018-Apr-18 21:55N 01°15' E 103°24'511.7
2018-Apr-18 21:30N 01°13' E 103°28'611.3
2018-Apr-18 20:59N 01°12' E 103°34'510.8
2018-Apr-18 20:30N 01°11' E 103°39'510.4
2018-Apr-18 20:00N 01°09' E 103°44'3 6.8
2018-Apr-18 19:30N 01°10' E 103°47'4 9.0
2018-Apr-18 19:00N 01°12' E 103°51'5 9.9
2018-Apr-18 18:30N 01°14' E 103°56'510.1
2018-Apr-18 18:00N 01°15' E 104°00'5 9.8
2018-Apr-18 17:28N 01°17' E 104°05'1 2.4
2018-Apr-18 16:55N 01°17' E 104°07'1 1.6
2018-Apr-18 16:24N 01°17' E 104°08'  
Track history (hours):
 
Tides and Currents Weather Stations Pressure Air Temp Water Temp Dewpoint Dewpoint Depression Visibility Wind Speed Wind Dir Waves Ship Positions

Iblea

Last reported at 2018-Apr-18 22:24 UTC. Time now 2018-Apr-21 18:46 UTC.
Position N 01°19' E 103°19'.

Length 240 m; draft 8 m.

Type: Ship. MMSI: 636091121.

Date/timePositionNaut miles runAvg speedWind from/ knotsBaromVisibWave heightAir tempDewpointWater temp
2018-Apr-18 22:24N 01°19' E 103°19'612.3
2018-Apr-18 21:55N 01°15' E 103°24'511.7
2018-Apr-18 21:30N 01°13' E 103°28'611.3
2018-Apr-18 20:59N 01°12' E 103°34'510.8
2018-Apr-18 20:30N 01°11' E 103°39'510.4
2018-Apr-18 20:00N 01°09' E 103°44'3 6.8
2018-Apr-18 19:30N 01°10' E 103°47'4 9.0
2018-Apr-18 19:00N 01°12' E 103°51'5 9.9
2018-Apr-18 18:30N 01°14' E 103°56'510.1
2018-Apr-18 18:00N 01°15' E 104°00'5 9.8
2018-Apr-18 17:28N 01°17' E 104°05'1 2.4
2018-Apr-18 16:55N 01°17' E 104°07'1 1.6
2018-Apr-18 16:24N 01°17' E 104°08'  

Dump ship's entire track history